Nearby METAR Reports

 

KLOM - Philly Wings F, Pennsylvania, USA
Distance from station: SW 6mi, 10km
Updated: Sun, 31-Aug-2014 1:55am EDT
Overcast
Overcast
 Wind from calm
Wind: Calm
Temperature: 72°F , 22°C
Dew Point: 66°F , 19°C
Humidity: 83%
Barometer: 30.14 inHg , 1020.7 hPa
Clouds: Overcast
Visibility: 10 miles , 16 km
Cloud details: Overcast 1600 ft
2014/08/31 05:55 KLOM 310555Z AUTO 00000KT 10SM OVC016 22/19 A3014 RMK AO1
KDYL - Doylestown, Pennsylvania, USA
Distance from station: NNE 10mi, 17km
Updated: Sun, 31-Aug-2014 1:54am EDT
Overcast
Overcast
 Wind from SSE
Wind: SSE 3 mph , 6 km/h
Temperature: 68°F , 20°C
Dew Point: 63°F , 17°C
Humidity: 83%
Barometer: 30.14 inHg , 1020.7 hPa
Clouds: Overcast
Visibility: 10 miles , 16 km
Cloud details: Mostly cloudy 1800 ft
Overcast 4200 ft
2014/08/31 05:54 KDYL 310554Z AUTO 16003KT 10SM BKN018 OVC042 20/17 A3014 RMK AO2 SLP202 T02000172 10228 20194 58010
KPNE - Philadelphia/Ne, Pennsylvania, USA
Distance from station: SE 11mi, 18km
Updated: Sun, 31-Aug-2014 1:54am EDT
Overcast
Overcast
 Wind from SSW
Wind: SSW 3 mph , 6 km/h
Temperature: 73°F , 23°C
Dew Point: 61°F , 16°C
Humidity: 65%
Barometer: 30.15 inHg , 1021 hPa
Clouds: Overcast
Visibility: 10 miles , 16 km
Cloud details: Mostly cloudy 1800 ft
Overcast 2500 ft
2014/08/31 05:54 KPNE 310554Z AUTO 20003KT 10SM BKN018 OVC025 23/16 A3015 RMK AO2 SLP210 T02330161 10250 20228 58010 TSNO
 
KPTW - Pottstown, Pennsylvania, USA
Distance from station: W 20mi, 32km
Updated: Sun, 31-Aug-2014 1:54am EDT
Overcast
Overcast
 Wind from varies
Wind: varies 3 mph , 6 km/h
Temperature: 72°F , 22°C
Dew Point: 64°F , 18°C
Humidity: 78%
Barometer: 30.15 inHg , 1021 hPa
Clouds: Overcast
Visibility: 10 miles , 16 km
Cloud details: Few Clouds 1500 ft
Overcast 4300 ft
2014/08/31 05:54 KPTW 310554Z AUTO VRB03KT 10SM FEW015 OVC043 22/18 A3015 RMK AO2 SLP206 T02170183 10239 20217 58006
KTTN - Trenton, New Jersey, USA
Distance from station: ENE 20mi, 32km
Updated: Sun, 31-Aug-2014 1:53am EDT
Overcast
Overcast
 Wind from S
Wind: S 7 mph , 11 km/h
Temperature: 70°F , 21°C
Dew Point: 63°F , 17°C
Humidity: 78%
Barometer: 30.14 inHg , 1020.7 hPa
Clouds: Overcast
Visibility: 10 miles , 16 km
Cloud details: Partly cloudy 2000 ft
Overcast 4300 ft
2014/08/31 05:53 KTTN 310553Z AUTO 18006KT 10SM SCT020 OVC043 21/17 A3014 RMK AO2 SLP199 T02110167 10233 20206 58010
KUKT - Quakertown Arp, Pennsylvania, USA
Distance from station: NNW 20mi, 32km
Updated: Sun, 31-Aug-2014 1:55am EDT
Overcast
Overcast
 
Temperature: 72°F , 22°C
Dew Point: 64°F , 18°C
Humidity: 78%
Barometer: 30.15 inHg , 1021 hPa
Clouds: Overcast
Visibility: 10 miles , 16 km
Cloud details: Mostly cloudy 1800 ft
Overcast 3800 ft
2014/08/31 05:55 KUKT 310555Z AUTO 10SM BKN018 OVC038 22/18 A3015 RMK AO1
 
KPHL - Philadelphia, Pennsylvania, USA
Distance from station: S 22mi, 36km
Updated: Sun, 31-Aug-2014 1:54am EDT
Overcast
Overcast
 Wind from S
Wind: S 6 mph , 9 km/h
Temperature: 73°F , 23°C
Dew Point: 64°F , 18°C
Humidity: 74%
Barometer: 30.15 inHg , 1021 hPa
Clouds: Overcast
Visibility: 10 miles , 16 km
Cloud details: Few Clouds 2000 ft
Overcast 3300 ft
2014/08/31 05:54 KPHL 310554Z 18005KT 10SM FEW020 OVC033 23/18 A3015 RMK AO2 SLP209 T02280183 10244 20228 58007 $
KVAY - Mount Holly, New Jersey, USA
Distance from station: SE 25mi, 41km
Updated: Sun, 31-Aug-2014 1:54am EDT
Overcast
Overcast
 Wind from varies
Wind: varies 3 mph , 6 km/h
Temperature: 72°F , 22°C
Dew Point: 63°F , 17°C
Humidity: 73%
Barometer: 30.14 inHg , 1020.7 hPa
Clouds: Overcast
Visibility: 10 miles , 16 km
Cloud details: Few Clouds 2400 ft
Few Clouds 3200 ft
Overcast 4900 ft
2014/08/31 05:54 KVAY 310554Z AUTO VRB03KT 10SM FEW024 FEW032 OVC049 22/17 A3014 RMK AO2 SLP206 T02170167 10228 20211 58011
KXLL - Allentown Queen, Pennsylvania, USA
Distance from station: NNW 31mi, 49km
Updated: Sun, 31-Aug-2014 1:55am EDT
Overcast
Overcast
 Wind from SSW
Wind: SSW 6 mph , 9 km/h
Temperature: 72°F , 22°C
Dew Point: 63°F , 17°C
Humidity: 73%
Barometer: 30.14 inHg , 1020.7 hPa
Clouds: Overcast
Visibility: 10 miles , 16 km
Cloud details: Overcast 4000 ft
2014/08/31 05:55 KXLL 310555Z AUTO 20005KT 10SM OVC040 22/17 A3014 RMK AO2
 
KWRI - Wrightst/Mcguire, New Jersey, USA
Distance from station: ESE 34mi, 54km
Updated: Sun, 31-Aug-2014 1:58am EDT
Overcast
Overcast
 Wind from S
Wind: S 8 mph , 13 km/h
Temperature: 72°F , 22°C
Dew Point: 64°F , 18°C
Humidity: 78%
Barometer: 30.13 inHg , 1020.3 hPa
Clouds: Overcast
Visibility: 10 miles , 16 km
Cloud details: Few Clouds 2700 ft
Overcast 4500 ft
2014/08/31 05:58 KWRI 310558Z AUTO 17007KT 10SM FEW027 OVC045 22/18 A3013 RMK AO2 SLP205 T02160180 10219 20211 57008
KABE - Allentown, Pennsylvania, USA
Distance from station: NNW 35mi, 56km
Updated: Sun, 31-Aug-2014 1:51am EDT
Overcast
Overcast
 Wind from calm
Wind: Calm
Temperature: 73°F , 23°C
Dew Point: 63°F , 17°C
Humidity: 69%
Barometer: 30.14 inHg , 1020.7 hPa
Clouds: Overcast
Visibility: 10 miles , 16 km
Cloud details: Overcast 3700 ft
2014/08/31 05:51 KABE 310551Z 00000KT 10SM OVC037 23/17 A3014 RMK AO2 SLP202 T02280172 10239 20228 58005
KMQS - Coatesville, Pennsylvania, USA
Distance from station: WSW 39mi, 63km
Updated: Sun, 31-Aug-2014 1:55am EDT
Overcast
Overcast
 Wind from SE
Wind: SE 7 mph , 11 km/h
Temperature: 70°F , 21°C
Dew Point: 70°F , 21°C
Humidity: 100%
Barometer: 30.16 inHg , 1021.3 hPa
Clouds: Overcast
Visibility: 10 miles , 16 km
Cloud details: Overcast 1100 ft
2014/08/31 05:55 KMQS 310555Z AUTO 13006KT 10SM OVC011 21/21 A3016 RMK AO2
 
KSMQ - Somerville, New Jersey, USA
Distance from station: NE 40mi, 64km
Updated: Sun, 31-Aug-2014 1:53am EDT
Mostly cloudy
Mostly cloudy
 Wind from S
Wind: S 3 mph , 6 km/h
Temperature: 70°F , 21°C
Dew Point: 63°F , 17°C
Humidity: 78%
Barometer: 30.12 inHg , 1020 hPa
Clouds: Mostly cloudy
Visibility: 10 miles , 16 km
Cloud details: Mostly cloudy 4400 ft
2014/08/31 05:53 KSMQ 310553Z AUTO 19003KT 10SM BKN044 21/17 A3012 RMK AO2 SLP200 T02060167 10233 20200 58009 PWINO $
KILG - Wilmington, Delaware, USA
Distance from station: SSW 42mi, 68km
Updated: Sun, 31-Aug-2014 1:51am EDT
Overcast
Overcast
 Wind from S
Wind: S 8 mph , 13 km/h
Temperature: 73°F , 23°C
Dew Point: 66°F , 19°C
Humidity: 78%
Barometer: 30.15 inHg , 1021 hPa
Clouds: Overcast
Visibility: 10 miles , 16 km
Cloud details: Mostly cloudy 3200 ft
Overcast 4900 ft
2014/08/31 05:51 KILG 310551Z AUTO 18007KT 10SM BKN032 OVC049 23/19 A3015 RMK AO2 SLP207 T02330194 10244 20228 58007
KRDG - Reading, Pennsylvania, USA
Distance from station: WNW 43mi, 70km
Updated: Sun, 31-Aug-2014 1:54am EDT
Overcast
Overcast
 Wind from SSE
Wind: SSE 7 mph , 11 km/h
Temperature: 73°F , 23°C
Dew Point: 64°F , 18°C
Humidity: 74%
Barometer: 30.12 inHg , 1020 hPa
Clouds: Overcast
Visibility: 10 miles , 16 km
Cloud details: Mostly cloudy 1600 ft
Mostly cloudy 3100 ft
Overcast 4100 ft
2014/08/31 05:54 KRDG 310554Z AUTO 16006KT 10SM BKN016 BKN031 OVC041 23/18 A3012 RMK AO2 SLP202 T02280183 10244 20222 58005
 
KNEL - Lakehurst Nas, New Jersey, USA
Distance from station: ESE 46mi, 74km
Updated: Thu, 17-Jul-2014 3:00pm EDT
NOT Current
Mostly cloudy
Mostly cloudy
 Wind from WNW
Wind: WNW 6 mph , 9 km/h
Temperature: 81°F , 27°C
Heat Index: 81°F , 27°C
Dew Point: 55°F , 13°C
Humidity: 42%
Barometer: 29.99 inHg , 1015.6 hPa
Clouds: Mostly cloudy
Cloud details: Partly cloudy 5500 ft
Partly cloudy 8000 ft
Mostly cloudy 10000 ft
2014/07/17 19:00 KNEL 171900Z AUTO 30005KT SCT055 SCT080 BKN100 27/13 A2999 RMK AO2 SLP153 T02720128 $
KMJX - Toms River, New Jersey, USA
Distance from station: ESE 50mi, 80km
Updated: Sun, 31-Aug-2014 1:55am EDT
Overcast
Overcast
 Wind from calm
Wind: Calm
Temperature: 72°F , 22°C
Dew Point: 66°F , 19°C
Humidity: 83%
Barometer: 30.17 inHg , 1021.7 hPa
Clouds: Overcast
Visibility: 10 miles , 16 km
Cloud details: Overcast 4200 ft
2014/08/31 05:55 KMJX 310555Z AUTO 00000KT 10SM OVC042 22/19 A3017 RMK AO1 10220 20210 57003